Time;durP1;ratioP1;P1;durP2;ratioP2;P2;SDS_P1;SDS_P2;PMS_P1;PMS_P2;Temp;Humidity;BMP_temperature;BMP_pressure;BME280_temperature;BME280_humidity;BME280_pressure;Samples;Min_cycle;Max_cycle;Signal;HPM_P1;HPM_P2
2023/01/27 00:01:51;;;;;;;16.13;11.93;;;6.20;58.80;;;;;;5032204;28;20196;-59
2023/01/27 00:04:16;;;;;;;17.97;12.80;;;6.10;58.80;;;;;;5032329;28;20281;-59
2023/01/27 00:06:42;;;;;;;18.87;13.40;;;6.10;58.60;;;;;;5032218;28;20849;-59
2023/01/27 00:09:08;;;;;;;15.50;11.90;;;6.20;58.60;;;;;;5032103;28;20189;-59
2023/01/27 00:14:18;;;;;;;18.40;12.50;;;6.20;58.60;;;;;;5023406;28;20275;-58
2023/01/27 00:16:43;;;;;;;19.30;12.47;;;6.20;58.50;;;;;;5031903;28;20581;-59
2023/01/27 00:19:09;;;;;;;16.33;11.60;;;6.10;58.50;;;;;;5031929;28;20197;-59
2023/01/27 00:24:36;;;;;;;20.13;12.30;;;6.20;58.60;;;;;;5031381;28;20541;-59
2023/01/27 00:27:03;;;;;;;21.27;13.60;;;6.20;58.60;;;;;;5031867;28;20424;-59
2023/01/27 00:29:29;;;;;;;17.07;11.87;;;6.10;58.80;;;;;;5031324;28;20435;-59
2023/01/27 00:34:40;;;;;;;16.80;11.77;;;6.10;58.70;;;;;;5031558;28;20272;-59
2023/01/27 00:37:06;;;;;;;18.50;12.23;;;6.20;58.60;;;;;;5031134;28;21046;-59
2023/01/27 00:39:31;;;;;;;16.73;12.30;;;6.10;58.50;;;;;;5031104;28;20503;-59
2023/01/27 00:41:57;;;;;;;23.70;12.90;;;6.00;58.60;;;;;;5031391;28;20434;-59
2023/01/27 00:44:22;;;;;;;22.60;14.90;;;6.00;59.10;;;;;;5031316;28;20196;-58
2023/01/27 00:46:48;;;;;;;23.13;13.87;;;6.00;59.10;;;;;;5031425;28;20185;-58
2023/01/27 00:49:14;;;;;;;18.30;11.80;;;6.00;59.00;;;;;;5031305;28;20193;-58
2023/01/27 00:51:40;;;;;;;22.40;15.50;;;6.00;58.90;;;;;;5029688;28;20428;-59
2023/01/27 00:54:06;;;;;;;22.50;13.80;;;6.00;59.00;;;;;;5031650;28;20192;-58
2023/01/27 00:56:32;;;;;;;25.43;14.40;;;6.00;59.20;;;;;;5031127;28;20475;-58
2023/01/27 00:58:58;;;;;;;20.17;14.47;;;5.90;59.10;;;;;;5031248;28;20652;-58
2023/01/27 01:01:23;;;;;;;23.70;15.60;;;6.00;59.10;;;;;;5030755;28;20427;-58
2023/01/27 01:03:49;;;;;;;19.00;14.50;;;6.00;59.10;;;;;;5029932;28;20444;-58
2023/01/27 01:06:16;;;;;;;18.87;13.80;;;6.00;59.10;;;;;;5031089;28;20279;-59
2023/01/27 01:08:42;;;;;;;19.30;13.50;;;6.10;59.00;;;;;;5031154;28;20570;-59
2023/01/27 01:11:14;;;;;;;24.10;15.73;;;6.20;58.70;;;;;;5030672;28;20507;-58
2023/01/27 01:13:41;;;;;;;24.87;16.60;;;6.20;58.50;;;;;;5024432;28;20193;-58
2023/01/27 01:16:10;;;;;;;22.63;16.00;;;6.20;58.50;;;;;;5029403;28;20464;-58
2023/01/27 01:18:36;;;;;;;22.20;15.13;;;6.30;58.50;;;;;;5029231;28;20434;-58
2023/01/27 01:21:02;;;;;;;23.47;16.03;;;6.30;58.40;;;;;;5030497;28;20480;-59
2023/01/27 01:23:28;;;;;;;22.77;14.50;;;6.30;58.50;;;;;;5031117;28;20432;-59
2023/01/27 01:25:55;;;;;;;23.63;14.70;;;6.30;58.40;;;;;;5030981;28;20302;-59
2023/01/27 01:28:21;;;;;;;22.23;13.57;;;6.30;58.20;;;;;;5031349;28;20193;-59
2023/01/27 01:30:47;;;;;;;22.43;14.60;;;6.30;58.10;;;;;;5030302;28;20468;-59
2023/01/27 01:33:13;;;;;;;22.80;15.33;;;6.20;57.90;;;;;;5030661;28;20829;-58
2023/01/27 01:35:38;;;;;;;23.57;15.40;;;6.20;58.00;;;;;;5030773;28;20436;-59
2023/01/27 01:38:04;;;;;;;24.67;13.87;;;6.20;58.00;;;;;;5030748;28;20693;-59
2023/01/27 01:40:30;;;;;;;21.17;15.00;;;6.20;58.10;;;;;;5030261;28;20212;-59
2023/01/27 01:43:04;;;;;;;26.27;15.50;;;6.20;58.10;;;;;;5030869;28;20428;-58
2023/01/27 01:45:32;;;;;;;18.40;13.23;;;6.20;57.90;;;;;;5033221;28;20264;-58
2023/01/27 01:48:54;;;;;;;19.10;14.03;;;6.20;58.00;;;;;;5034776;28;20420;-59
2023/01/27 01:51:27;;;;;;;22.87;13.27;;;6.20;58.00;;;;;;4973201;28;20481;-59
2023/01/27 01:54:01;;;;;;;24.07;14.20;;;6.30;58.00;;;;;;5025157;28;20444;-59
2023/01/27 01:56:55;;;;;;;22.43;14.37;;;6.30;57.90;;;;;;5034456;28;20474;-59
2023/01/27 01:59:29;;;;;;;18.90;12.43;;;6.30;57.70;;;;;;5033698;28;20471;-59
2023/01/27 02:01:57;;;;;;;19.80;12.50;;;6.30;57.60;;;;;;5034616;28;20420;-58
2023/01/27 02:04:30;;;;;;;19.53;14.00;;;6.30;57.50;;;;;;5034329;28;20942;-58
2023/01/27 02:07:06;;;;;;;18.73;13.50;;;6.30;57.90;;;;;;5034483;28;20428;-58
2023/01/27 02:09:32;;;;;;;16.63;12.00;;;6.20;57.80;;;;;;5033945;28;20423;-58
2023/01/27 02:11:58;;;;;;;20.53;14.47;;;6.30;57.80;;;;;;5032663;28;20428;-58
2023/01/27 02:14:24;;;;;;;22.47;13.43;;;6.20;57.70;;;;;;5025718;28;20431;-58
2023/01/27 02:16:50;;;;;;;22.50;12.80;;;6.30;57.60;;;;;;5034071;28;21002;-59
2023/01/27 02:21:41;;;;;;;20.80;14.10;;;6.40;57.60;;;;;;5034315;28;20201;-59
2023/01/27 02:24:11;;;;;;;21.10;14.10;;;6.40;57.50;;;;;;5033887;28;20197;-59
2023/01/27 02:26:43;;;;;;;19.67;14.47;;;6.40;57.50;;;;;;5034098;28;20194;-59
2023/01/27 02:29:11;;;;;;;18.93;13.73;;;6.40;57.60;;;;;;5033700;28;20442;-59
2023/01/27 02:31:37;;;;;;;19.10;14.50;;;6.50;57.60;;;;;;5033974;28;20558;-59
2023/01/27 02:34:16;;;;;;;19.33;13.63;;;6.50;57.50;;;;;;5033795;28;20867;-59
2023/01/27 02:36:46;;;;;;;21.53;13.23;;;6.50;57.50;;;;;;5033770;28;20483;-59
2023/01/27 02:39:15;;;;;;;21.10;12.20;;;6.50;57.40;;;;;;5031924;28;20431;-59
2023/01/27 02:41:43;;;;;;;19.80;12.83;;;6.50;57.40;;;;;;5033766;28;20448;-59
2023/01/27 02:44:09;;;;;;;20.10;13.03;;;6.50;57.30;;;;;;5033773;28;20882;-59
2023/01/27 02:46:36;;;;;;;22.80;13.13;;;6.50;57.20;;;;;;5033724;28;20442;-59
2023/01/27 02:49:02;;;;;;;23.27;14.60;;;6.50;56.90;;;;;;5033270;28;20531;-59
2023/01/27 02:51:28;;;;;;;20.60;13.57;;;6.50;56.90;;;;;;5033629;28;20432;-59
2023/01/27 02:53:54;;;;;;;18.70;11.60;;;6.50;56.90;;;;;;5033485;28;20442;-59
2023/01/27 02:56:20;;;;;;;19.53;13.57;;;6.50;56.90;;;;;;5033118;28;20513;-58
2023/01/27 02:58:45;;;;;;;18.83;12.47;;;6.50;56.90;;;;;;5033572;28;20205;-58
2023/01/27 03:01:11;;;;;;;21.43;11.80;;;6.50;56.80;;;;;;5032708;28;20826;-59
2023/01/27 03:03:42;;;;;;;21.00;13.13;;;6.50;56.80;;;;;;5033524;28;20189;-59
2023/01/27 03:06:09;;;;;;;19.50;12.67;;;6.50;56.70;;;;;;5031423;28;20276;-59
2023/01/27 03:08:35;;;;;;;19.37;12.70;;;6.50;56.70;;;;;;5033236;28;20420;-59
2023/01/27 03:11:00;;;;;;;23.33;13.13;;;6.50;56.70;;;;;;5031535;28;20447;-59
2023/01/27 03:13:27;;;;;;;19.23;12.73;;;6.50;56.80;;;;;;5028302;28;20240;-58
2023/01/27 03:18:37;;;;;;;17.43;12.20;;;6.40;56.80;;;;;;5033416;28;20785;-58
2023/01/27 03:21:05;;;;;;;16.33;11.53;;;6.50;56.80;;;;;;5032695;28;20424;-59
2023/01/27 03:23:35;;;;;;;20.10;12.97;;;6.50;57.40;;;;;;5032985;28;20228;-59
2023/01/27 03:26:04;;;;;;;24.03;14.13;;;6.50;56.90;;;;;;5032879;28;20432;-59
2023/01/27 03:28:29;;;;;;;20.70;13.47;;;6.50;56.80;;;;;;5032875;28;20424;-59
2023/01/27 03:31:07;;;;;;;21.83;13.70;;;6.50;56.60;;;;;;5031261;28;20998;-58
2023/01/27 03:33:33;;;;;;;23.20;15.27;;;6.50;56.60;;;;;;5032830;28;20192;-59
2023/01/27 03:47:00;;;;;;;26.30;16.87;;;6.50;56.70;;;;;;5032467;28;20514;-59
2023/01/27 03:49:26;;;;;;;22.67;15.23;;;6.50;56.80;;;;;;5032207;28;20456;-59
2023/01/27 03:51:51;;;;;;;23.53;14.63;;;6.50;56.80;;;;;;5032550;28;20189;-59
2023/01/27 03:54:17;;;;;;;24.40;16.40;;;6.50;56.80;;;;;;5032584;28;20263;-59
2023/01/27 03:56:42;;;;;;;24.53;15.40;;;6.60;57.00;;;;;;5032198;28;20227;-59
2023/01/27 03:59:08;;;;;;;21.53;15.77;;;6.50;56.80;;;;;;5030247;28;20189;-59
2023/01/27 04:01:34;;;;;;;20.70;14.80;;;6.60;56.80;;;;;;5032089;28;20193;-59
2023/01/27 04:06:57;;;;;;;18.37;14.87;;;6.50;56.70;;;;;;5031062;28;20733;-59
2023/01/27 04:09:28;;;;;;;23.37;16.37;;;6.50;56.90;;;;;;5031675;28;20792;-58
2023/01/27 04:11:58;;;;;;;22.10;14.10;;;6.50;57.20;;;;;;5032227;28;20802;-59
2023/01/27 04:14:32;;;;;;;16.93;13.07;;;6.60;57.40;;;;;;5023587;28;20804;-58
2023/01/27 04:17:01;;;;;;;18.73;11.90;;;6.60;57.30;;;;;;5031969;28;20570;-58
2023/01/27 04:19:26;;;;;;;17.97;12.90;;;6.60;57.30;;;;;;5031438;28;20817;-59
2023/01/27 04:21:53;;;;;;;22.33;11.73;;;6.50;57.30;;;;;;5031811;28;20431;-58
2023/01/27 04:24:21;;;;;;;18.13;11.03;;;6.50;57.40;;;;;;5030387;28;20192;-58
2023/01/27 04:27:07;;;;;;;15.57;10.73;;;6.50;57.30;;;;;;5031872;28;20474;-59
2023/01/27 04:29:35;;;;;;;16.07;10.53;;;6.50;57.20;;;;;;5031334;28;20447;-59
2023/01/27 04:32:03;;;;;;;16.47;10.60;;;6.50;57.00;;;;;;5031417;28;20474;-58
2023/01/27 04:34:28;;;;;;;16.63;10.77;;;6.50;57.00;;;;;;5031650;28;20433;-58
2023/01/27 04:36:55;;;;;;;17.07;11.50;;;6.50;56.90;;;;;;5031326;28;20983;-59
2023/01/27 04:39:21;;;;;;;16.73;11.27;;;6.50;56.80;;;;;;5031423;28;20259;-58
2023/01/27 04:41:47;;;;;;;15.97;11.80;;;6.50;56.80;;;;;;5031408;28;20416;-59
2023/01/27 04:44:13;;;;;;;19.13;11.50;;;6.50;56.70;;;;;;5031324;28;20185;-59
2023/01/27 04:46:39;;;;;;;17.63;11.73;;;6.50;56.60;;;;;;5031427;28;20515;-58
2023/01/27 04:49:05;;;;;;;16.53;10.90;;;6.50;56.70;;;;;;5031098;28;20197;-58
2023/01/27 04:51:33;;;;;;;16.50;11.83;;;6.40;56.90;;;;;;5029627;28;20435;-59
2023/01/27 04:53:59;;;;;;;18.43;12.30;;;6.30;57.10;;;;;;5031382;28;20486;-58
2023/01/27 04:56:31;;;;;;;18.40;11.83;;;6.30;57.10;;;;;;5031513;28;20516;-59
2023/01/27 04:58:59;;;;;;;18.37;10.73;;;6.30;56.70;;;;;;5030724;28;20776;-58
2023/01/27 05:01:27;;;;;;;16.97;11.50;;;6.30;56.70;;;;;;5031085;28;20459;-59
2023/01/27 05:03:53;;;;;;;15.80;11.50;;;6.40;56.70;;;;;;5029834;28;20497;-59
2023/01/27 05:06:19;;;;;;;16.33;11.40;;;6.40;56.80;;;;;;5031320;28;20423;-58
2023/01/27 05:08:45;;;;;;;16.23;11.63;;;6.40;56.60;;;;;;5031301;28;20416;-59
2023/01/27 05:11:12;;;;;;;17.07;11.30;;;6.40;57.00;;;;;;5031031;28;20435;-59
2023/01/27 05:13:39;;;;;;;18.77;12.23;;;6.40;56.30;;;;;;5024797;28;20204;-59
2023/01/27 05:16:08;;;;;;;17.60;12.67;;;6.40;56.40;;;;;;5028708;28;20443;-59
2023/01/27 05:18:34;;;;;;;17.87;11.70;;;6.40;56.40;;;;;;5029247;28;20777;-58
2023/01/27 05:21:01;;;;;;;19.30;12.70;;;6.50;56.50;;;;;;5030404;28;20432;-59
2023/01/27 05:23:36;;;;;;;20.03;12.97;;;6.50;56.40;;;;;;5030977;28;20427;-59
2023/01/27 05:26:05;;;;;;;22.60;12.90;;;6.50;56.40;;;;;;5030831;28;20447;-58
2023/01/27 05:28:31;;;;;;;21.40;13.37;;;6.60;56.60;;;;;;5030940;28;20443;-59
2023/01/27 05:31:18;;;;;;;24.30;13.73;;;6.60;56.40;;;;;;5030424;28;20467;-59
2023/01/27 05:33:44;;;;;;;19.93;12.30;;;6.60;56.50;;;;;;5031027;28;20838;-59
2023/01/27 05:36:13;;;;;;;20.40;12.70;;;6.60;56.30;;;;;;5030722;28;20945;-59
2023/01/27 05:38:39;;;;;;;18.67;12.37;;;6.60;56.30;;;;;;5030552;28;20447;-59
2023/01/27 05:41:06;;;;;;;21.27;14.00;;;6.60;56.40;;;;;;5030281;28;20469;-59
2023/01/27 05:43:34;;;;;;;21.43;13.73;;;6.60;56.40;;;;;;5030674;28;20420;-59
2023/01/27 05:46:08;;;;;;;19.33;13.47;;;6.50;56.90;;;;;;5028984;28;20424;-59
2023/01/27 05:48:35;;;;;;;23.30;14.80;;;6.50;56.40;;;;;;5029398;28;20978;-59
2023/01/27 05:51:01;;;;;;;21.37;14.30;;;6.50;56.50;;;;;;5030608;28;20912;-60
2023/01/27 05:53:26;;;;;;;19.30;12.83;;;6.50;56.60;;;;;;5031092;28;20495;-59
2023/01/27 05:55:53;;;;;;;23.97;14.40;;;6.60;56.60;;;;;;5030793;28;20196;-59
2023/01/27 05:58:19;;;;;;;17.67;12.37;;;6.50;56.50;;;;;;5030568;28;20229;-59
2023/01/27 06:00:44;;;;;;;24.47;13.90;;;6.60;56.70;;;;;;5030316;28;20426;-59
2023/01/27 06:03:10;;;;;;;18.53;12.90;;;6.50;56.80;;;;;;5030557;28;20635;-59
2023/01/27 06:05:36;;;;;;;23.60;14.47;;;6.50;56.90;;;;;;5031005;28;20201;-59
2023/01/27 06:08:02;;;;;;;22.00;13.20;;;6.50;56.90;;;;;;5030560;28;20495;-58
2023/01/27 06:10:27;;;;;;;23.17;15.40;;;6.50;56.70;;;;;;5030282;28;20200;-59
2023/01/27 06:12:53;;;;;;;19.50;13.00;;;6.50;56.60;;;;;;5028368;28;20641;-59
2023/01/27 06:15:19;;;;;;;19.93;12.57;;;6.60;56.80;;;;;;5022322;28;20250;-59
2023/01/27 06:17:44;;;;;;;19.20;12.93;;;6.60;56.70;;;;;;5030467;28;20920;-59
2023/01/27 06:20:10;;;;;;;23.40;15.10;;;6.60;56.60;;;;;;5030187;28;20197;-59
2023/01/27 06:22:35;;;;;;;24.93;15.00;;;6.60;56.40;;;;;;5030142;28;20190;-59
2023/01/27 06:25:01;;;;;;;17.97;11.93;;;6.60;56.50;;;;;;5030319;28;20197;-59
2023/01/27 06:27:27;;;;;;;19.50;13.40;;;6.60;56.70;;;;;;5030128;28;20292;-59
2023/01/27 06:29:52;;;;;;;22.17;13.70;;;6.60;56.70;;;;;;5031072;28;20193;-59
2023/01/27 06:32:18;;;;;;;20.43;12.80;;;6.60;56.70;;;;;;5033867;28;20243;-59
2023/01/27 06:34:43;;;;;;;21.30;13.30;;;6.60;56.80;;;;;;5033899;28;20201;-59
2023/01/27 06:37:09;;;;;;;20.50;13.17;;;6.60;56.80;;;;;;5033762;28;20328;-59
2023/01/27 06:39:34;;;;;;;19.57;13.63;;;6.60;56.70;;;;;;5031693;28;20197;-59
2023/01/27 06:42:00;;;;;;;19.13;12.13;;;6.40;56.50;;;;;;5033639;28;20308;-59
2023/01/27 06:44:25;;;;;;;20.27;12.73;;;6.50;56.70;;;;;;5033754;28;20568;-59
2023/01/27 06:46:52;;;;;;;19.57;13.30;;;6.50;56.70;;;;;;5032261;28;20201;-59
2023/01/27 06:49:18;;;;;;;18.37;11.20;;;6.60;56.70;;;;;;5033645;28;20629;-59
2023/01/27 06:51:44;;;;;;;18.73;12.33;;;6.60;56.50;;;;;;5033513;28;20481;-59
2023/01/27 06:54:10;;;;;;;17.77;13.40;;;6.60;56.40;;;;;;5033524;28;20432;-59
2023/01/27 06:56:35;;;;;;;19.70;13.03;;;6.70;56.40;;;;;;5033400;28;20313;-59
2023/01/27 06:59:01;;;;;;;15.77;11.30;;;6.70;56.30;;;;;;5033071;28;20983;-59
2023/01/27 07:01:27;;;;;;;20.17;12.63;;;6.60;56.00;;;;;;5033346;28;20280;-59
2023/01/27 07:03:52;;;;;;;19.60;12.77;;;6.50;56.40;;;;;;5033194;28;20210;-59
2023/01/27 07:06:19;;;;;;;16.03;11.20;;;6.60;56.40;;;;;;5031756;28;20189;-58
2023/01/27 07:08:46;;;;;;;14.70;10.57;;;6.60;56.40;;;;;;5032919;28;20211;-59
2023/01/27 07:11:12;;;;;;;16.00;10.33;;;6.50;55.90;;;;;;5033096;28;20939;-59
2023/01/27 07:13:37;;;;;;;15.90;10.53;;;6.30;56.20;;;;;;5026912;28;20923;-59
2023/01/27 07:16:03;;;;;;;16.10;10.70;;;6.00;56.00;;;;;;5030626;28;20503;-59
2023/01/27 07:18:29;;;;;;;15.77;11.07;;;6.10;56.20;;;;;;5033152;28;20185;-59
2023/01/27 07:20:55;;;;;;;14.53;10.60;;;6.10;56.30;;;;;;5032621;28;20420;-59
2023/01/27 07:23:20;;;;;;;13.43;10.27;;;6.00;56.30;;;;;;5032977;28;20729;-59
2023/01/27 07:25:46;;;;;;;14.70;9.60;;;6.00;56.50;;;;;;5033138;28;20190;-59
2023/01/27 07:28:12;;;;;;;11.10;8.83;;;5.90;56.30;;;;;;5032977;28;20201;-59
2023/01/27 07:30:38;;;;;;;15.57;9.23;;;5.80;56.60;;;;;;5032001;28;20193;-59
2023/01/27 07:33:08;;;;;;;12.13;8.90;;;5.70;56.70;;;;;;5031712;28;20263;-59
2023/01/27 07:35:35;;;;;;;14.90;10.43;;;5.80;56.90;;;;;;5032666;28;20417;-59
2023/01/27 07:38:01;;;;;;;15.03;9.83;;;6.00;57.00;;;;;;5032752;28;20484;-59
2023/01/27 07:40:27;;;;;;;15.00;9.53;;;6.10;56.70;;;;;;5032117;28;20431;-59
2023/01/27 07:42:52;;;;;;;13.67;9.70;;;6.20;56.30;;;;;;5032771;28;20192;-59
2023/01/27 07:45:18;;;;;;;12.23;9.83;;;6.10;55.90;;;;;;5032861;28;20220;-59
2023/01/27 07:47:43;;;;;;;13.83;9.10;;;6.10;55.90;;;;;;5032740;28;20196;-59
2023/01/27 07:50:11;;;;;;;12.43;8.60;;;6.10;55.90;;;;;;5032158;28;20194;-59
2023/01/27 07:52:36;;;;;;;10.93;8.57;;;5.90;55.50;;;;;;5032433;28;20231;-59
2023/01/27 07:55:02;;;;;;;13.00;8.20;;;5.70;55.80;;;;;;5032335;28;20416;-59
2023/01/27 07:57:28;;;;;;;13.20;9.30;;;5.60;56.00;;;;;;5031305;28;20296;-58
2023/01/27 07:59:55;;;;;;;13.30;8.73;;;5.60;56.30;;;;;;5031356;28;20272;-59
2023/01/27 08:02:22;;;;;;;15.30;9.73;;;5.60;56.30;;;;;;5032259;28;20251;-58
2023/01/27 08:04:49;;;;;;;14.70;9.70;;;5.70;56.10;;;;;;5032286;28;20841;-58
2023/01/27 08:07:15;;;;;;;15.70;10.00;;;5.70;55.90;;;;;;5032254;28;20471;-58
2023/01/27 08:09:40;;;;;;;13.37;9.70;;;5.90;55.80;;;;;;5031778;28;20511;-59
2023/01/27 08:12:06;;;;;;;12.80;10.17;;;6.00;55.80;;;;;;5032053;28;20515;-58
2023/01/27 08:14:31;;;;;;;14.83;10.40;;;6.10;55.90;;;;;;5023569;28;20189;-59
2023/01/27 08:16:57;;;;;;;14.20;10.67;;;6.20;55.70;;;;;;5032208;28;20633;-58
2023/01/27 08:19:23;;;;;;;17.60;12.83;;;6.20;55.20;;;;;;5031561;28;20185;-58
2023/01/27 08:21:48;;;;;;;15.83;10.23;;;6.20;55.20;;;;;;5032001;28;20280;-59
2023/01/27 08:24:14;;;;;;;14.40;10.17;;;6.30;55.30;;;;;;5030486;28;20189;-58
2023/01/27 08:26:39;;;;;;;12.93;9.53;;;6.30;55.30;;;;;;5031748;28;20193;-58
2023/01/27 08:29:05;;;;;;;15.73;10.30;;;6.30;55.20;;;;;;5031297;28;20193;-58
2023/01/27 08:31:31;;;;;;;16.90;11.67;;;6.40;55.10;;;;;;5031710;28;20604;-58
2023/01/27 08:33:56;;;;;;;18.73;11.30;;;6.40;55.10;;;;;;5031624;28;20429;-58
2023/01/27 08:36:23;;;;;;;18.33;11.70;;;6.40;55.00;;;;;;5031620;28;20217;-59
2023/01/27 08:38:50;;;;;;;17.03;11.67;;;6.50;54.90;;;;;;5031047;28;20271;-59
2023/01/27 08:41:22;;;;;;;17.90;11.63;;;6.50;54.90;;;;;;5031654;28;20498;-59
2023/01/27 08:43:48;;;;;;;20.80;13.90;;;6.30;54.60;;;;;;5031611;28;20456;-59
2023/01/27 08:46:14;;;;;;;19.70;13.57;;;6.30;54.90;;;;;;5031499;28;20494;-58
2023/01/27 08:48:40;;;;;;;19.93;12.20;;;6.30;54.70;;;;;;5031113;28;20582;-58
2023/01/27 08:51:07;;;;;;;22.30;14.00;;;6.30;54.90;;;;;;5029649;28;20801;-59
2023/01/27 08:53:35;;;;;;;21.30;12.93;;;6.40;55.00;;;;;;5030780;28;20517;-59
2023/01/27 08:56:05;;;;;;;16.63;11.93;;;6.30;54.80;;;;;;5031342;28;20424;-59
2023/01/27 08:58:32;;;;;;;28.70;16.53;;;6.20;55.10;;;;;;5030745;28;20899;-59
2023/01/27 09:01:02;;;;;;;25.67;16.70;;;6.00;54.90;;;;;;5031206;28;20447;-59
2023/01/27 09:03:29;;;;;;;24.00;14.80;;;6.00;55.50;;;;;;5031333;28;20458;-59
2023/01/27 09:05:55;;;;;;;26.30;15.00;;;6.00;55.70;;;;;;5029643;28;20432;-58
2023/01/27 09:08:21;;;;;;;24.10;14.97;;;6.10;55.60;;;;;;5031122;28;20424;-59
2023/01/27 09:10:46;;;;;;;24.37;14.83;;;6.10;55.30;;;;;;5030784;28;20197;-59
2023/01/27 09:13:12;;;;;;;25.67;14.80;;;6.10;55.50;;;;;;5028180;28;20463;-58
2023/01/27 09:15:37;;;;;;;20.23;11.87;;;6.20;55.50;;;;;;5025343;28;20232;-59
2023/01/27 09:18:04;;;;;;;19.97;12.73;;;6.20;55.30;;;;;;5029340;28;20279;-59
2023/01/27 09:20:30;;;;;;;21.33;12.63;;;6.30;55.40;;;;;;5030596;28;20212;-58
2023/01/27 09:22:56;;;;;;;25.40;14.03;;;6.30;55.40;;;;;;5030958;28;20882;-58
2023/01/27 09:25:23;;;;;;;22.27;13.10;;;6.40;55.50;;;;;;5030893;28;20829;-59
2023/01/27 09:27:53;;;;;;;28.10;16.30;;;6.50;55.50;;;;;;5031187;28;20503;-58
2023/01/27 09:30:19;;;;;;;26.23;15.47;;;6.60;55.60;;;;;;5030551;28;20491;-59
2023/01/27 09:32:44;;;;;;;23.43;13.00;;;6.60;55.70;;;;;;5030963;28;20464;-59
2023/01/27 09:35:10;;;;;;;20.47;12.83;;;6.70;55.50;;;;;;5030807;28;20962;-58
2023/01/27 09:37:42;;;;;;;20.67;13.23;;;6.70;55.40;;;;;;5030856;28;20236;-58
2023/01/27 09:40:17;;;;;;;17.77;12.30;;;6.80;55.20;;;;;;5030521;28;20276;-58
2023/01/27 09:43:25;;;;;;;22.50;11.77;;;6.80;55.10;;;;;;5030879;28;20469;-59
2023/01/27 09:46:01;;;;;;;20.37;12.27;;;6.90;55.00;;;;;;5028336;28;20915;-58
2023/01/27 09:48:54;;;;;;;20.23;11.30;;;6.90;55.00;;;;;;5030447;28;20883;-59
2023/01/27 09:51:43;;;;;;;20.20;12.97;;;6.90;55.00;;;;;;5030440;28;20428;-59
2023/01/27 09:54:14;;;;;;;18.90;11.67;;;6.90;54.90;;;;;;5030683;28;21023;-58
2023/01/27 09:57:04;;;;;;;19.13;11.80;;;7.00;54.80;;;;;;5030683;28;20530;-58
2023/01/27 09:59:48;;;;;;;19.27;11.67;;;7.00;54.60;;;;;;5030253;28;20420;-58
2023/01/27 10:02:46;;;;;;;19.07;12.30;;;7.00;54.60;;;;;;5030542;28;20460;-58
2023/01/27 10:05:31;;;;;;;18.33;11.27;;;7.00;54.60;;;;;;5032161;28;20461;-58
2023/01/27 10:08:00;;;;;;;15.50;9.40;;;7.10;54.50;;;;;;5034320;28;20801;-58
2023/01/27 10:10:46;;;;;;;17.90;11.50;;;7.20;54.30;;;;;;5034194;28;21098;-58
2023/01/27 10:13:24;;;;;;;14.60;8.70;;;7.10;54.20;;;;;;5030557;28;20444;-58
2023/01/27 10:16:12;;;;;;;17.07;9.77;;;7.10;53.90;;;;;;5030727;28;21168;-58
2023/01/27 10:18:55;;;;;;;16.93;10.47;;;7.00;53.30;;;;;;5033818;28;20526;-59
2023/01/27 10:21:42;;;;;;;13.87;9.90;;;6.90;53.50;;;;;;5034388;28;20429;-58
2023/01/27 10:24:45;;;;;;;14.53;9.60;;;7.00;53.60;;;;;;5034338;28;20431;-58
2023/01/27 10:27:17;;;;;;;13.60;9.60;;;7.00;53.80;;;;;;5033962;28;20467;-58
2023/01/27 10:29:50;;;;;;;15.30;9.40;;;7.00;53.80;;;;;;5033738;28;20431;-59
2023/01/27 10:32:54;;;;;;;14.90;9.10;;;7.00;53.90;;;;;;5033941;28;20471;-59
2023/01/27 10:35:31;;;;;;;13.60;8.70;;;7.10;53.80;;;;;;5032846;28;20455;-59
2023/01/27 10:38:09;;;;;;;12.93;8.37;;;7.10;53.70;;;;;;5032183;28;20526;-58
2023/01/27 10:40:49;;;;;;;13.60;8.43;;;7.20;53.80;;;;;;5033824;28;20938;-59
2023/01/27 10:43:28;;;;;;;11.47;7.70;;;7.20;53.30;;;;;;5033870;28;20461;-59
2023/01/27 10:45:54;;;;;;;11.87;7.90;;;7.20;53.00;;;;;;5033852;28;20434;-59
2023/01/27 10:48:45;;;;;;;12.37;8.50;;;7.30;53.20;;;;;;5033333;28;20440;-59
2023/01/27 10:51:33;;;;;;;10.50;7.67;;;7.30;53.10;;;;;;5033722;28;20494;-58
2023/01/27 10:54:19;;;;;;;9.83;6.60;;;7.30;52.60;;;;;;5033753;28;20946;-58
2023/01/27 10:57:01;;;;;;;11.57;8.03;;;7.10;53.10;;;;;;5033474;28;20838;-58
2023/01/27 10:59:44;;;;;;;12.83;8.10;;;7.10;53.10;;;;;;5032932;28;20475;-59
2023/01/27 11:02:34;;;;;;;9.03;7.23;;;7.10;53.30;;;;;;5033515;28;20436;-59
2023/01/27 11:05:06;;;;;;;10.87;6.73;;;7.20;53.20;;;;;;5031772;28;20982;-59
2023/01/27 11:07:40;;;;;;;10.60;7.70;;;7.30;53.10;;;;;;5033317;28;20424;-59
2023/01/27 11:10:14;;;;;;;14.30;7.90;;;7.30;53.20;;;;;;5033213;28;20428;-59
2023/01/27 11:12:50;;;;;;;12.07;7.20;;;7.30;53.10;;;;;;5033355;28;20442;-59
2023/01/27 11:15:24;;;;;;;14.03;7.50;;;7.30;53.10;;;;;;5024128;28;20505;-59
2023/01/27 11:17:57;;;;;;;10.03;7.43;;;7.40;53.00;;;;;;5033284;28;20486;-59
2023/01/27 11:20:30;;;;;;;10.90;7.80;;;7.40;53.00;;;;;;5032888;28;20512;-59
2023/01/27 11:23:20;;;;;;;10.17;7.13;;;7.50;53.30;;;;;;5033128;28;20456;-59
2023/01/27 11:25:51;;;;;;;11.67;8.20;;;7.50;53.20;;;;;;5033179;28;20439;-59
2023/01/27 11:28:41;;;;;;;13.00;8.90;;;7.50;52.90;;;;;;5032557;28;20936;-59
2023/01/27 11:31:34;;;;;;;14.10;8.30;;;7.60;52.90;;;;;;5031499;28;20468;-58
2023/01/27 11:34:23;;;;;;;11.10;9.03;;;7.60;52.80;;;;;;5031718;28;20862;-59
2023/01/27 11:36:49;;;;;;;12.53;8.83;;;7.60;52.60;;;;;;5032788;28;20973;-59
2023/01/27 11:39:17;;;;;;;17.23;9.90;;;7.60;52.70;;;;;;5031212;28;20440;-59
2023/01/27 11:41:52;;;;;;;13.20;9.13;;;7.60;52.80;;;;;;5033065;28;20769;-60
2023/01/27 11:44:21;;;;;;;13.57;11.23;;;7.70;52.80;;;;;;5031696;28;20451;-59
2023/01/27 11:46:48;;;;;;;14.30;8.77;;;7.80;52.80;;;;;;5032782;28;20907;-59
2023/01/27 11:49:30;;;;;;;18.83;13.70;;;7.80;52.60;;;;;;5032444;28;20424;-59
2023/01/27 11:52:12;;;;;;;16.00;10.57;;;7.80;52.50;;;;;;5032551;28;20435;-59
2023/01/27 11:54:52;;;;;;;16.83;9.93;;;7.50;52.80;;;;;;5032526;28;20489;-58
2023/01/27 11:57:21;;;;;;;13.10;9.07;;;7.40;53.10;;;;;;5032561;28;20882;-58
2023/01/27 11:59:54;;;;;;;13.63;9.40;;;7.50;53.50;;;;;;5030411;28;20424;-59
2023/01/27 12:02:35;;;;;;;14.07;9.17;;;7.60;53.50;;;;;;5032305;28;20447;-59
2023/01/27 12:05:13;;;;;;;14.40;9.23;;;7.70;53.50;;;;;;5032135;28;20995;-59
2023/01/27 12:07:53;;;;;;;15.80;9.93;;;7.70;53.20;;;;;;5032304;28;20501;-58
2023/01/27 12:10:22;;;;;;;17.73;10.93;;;7.80;53.30;;;;;;5032097;28;20432;-59
2023/01/27 12:12:48;;;;;;;18.47;10.37;;;7.70;53.00;;;;;;5032571;28;20456;-58
2023/01/27 12:15:16;;;;;;;16.83;11.80;;;7.70;53.30;;;;;;5023674;28;20541;-58
2023/01/27 12:17:57;;;;;;;14.60;11.23;;;7.70;53.30;;;;;;5031956;28;20227;-59
2023/01/27 12:20:31;;;;;;;17.17;12.03;;;7.70;53.10;;;;;;5031626;28;20446;-59
2023/01/27 12:23:01;;;;;;;15.87;9.90;;;7.80;53.40;;;;;;5032008;28;20459;-59
2023/01/27 12:25:39;;;;;;;18.27;10.67;;;7.70;53.00;;;;;;5030294;28;20482;-59
2023/01/27 12:28:04;;;;;;;17.07;11.13;;;7.70;53.20;;;;;;5030765;28;20420;-59
2023/01/27 12:30:37;;;;;;;17.30;10.27;;;7.70;53.30;;;;;;5031582;28;20442;-59
2023/01/27 12:33:13;;;;;;;20.33;12.83;;;7.70;53.00;;;;;;5031820;28;20724;-59
2023/01/27 12:35:39;;;;;;;20.20;12.73;;;7.80;53.00;;;;;;5031848;28;20424;-58
2023/01/27 12:38:25;;;;;;;22.57;14.00;;;7.60;53.10;;;;;;5031527;28;20492;-58
2023/01/27 12:41:08;;;;;;;20.43;11.33;;;7.60;53.50;;;;;;5031723;28;20535;-59
2023/01/27 12:44:06;;;;;;;18.17;11.00;;;7.60;53.20;;;;;;5031486;28;20435;-59
2023/01/27 12:46:32;;;;;;;23.23;12.50;;;7.50;53.60;;;;;;5031644;28;20477;-59
2023/01/27 12:49:07;;;;;;;19.10;11.70;;;7.20;53.80;;;;;;5031341;28;20432;-59
2023/01/27 12:51:43;;;;;;;18.97;12.30;;;7.20;54.20;;;;;;5029666;28;20193;-59
2023/01/27 12:54:21;;;;;;;24.00;12.83;;;7.20;54.40;;;;;;5031648;28;20793;-58
2023/01/27 12:56:48;;;;;;;21.27;14.03;;;7.20;55.10;;;;;;5031418;28;20473;-59
2023/01/27 12:59:16;;;;;;;19.67;12.20;;;7.10;54.50;;;;;;5029560;28;20518;-59
2023/01/27 13:01:45;;;;;;;19.37;12.37;;;7.30;54.60;;;;;;5031397;28;20428;-59
2023/01/27 13:04:16;;;;;;;21.50;12.97;;;7.40;54.40;;;;;;5031210;28;20816;-59
2023/01/27 13:06:50;;;;;;;20.87;12.33;;;7.20;54.40;;;;;;5031396;28;20439;-58
2023/01/27 13:09:24;;;;;;;20.60;13.13;;;7.30;54.70;;;;;;5030969;28;20440;-59
2023/01/27 13:11:51;;;;;;;20.27;12.30;;;7.40;54.40;;;;;;5031222;28;20450;-58
2023/01/27 13:14:17;;;;;;;20.43;13.30;;;7.50;54.30;;;;;;5022193;28;20523;-58
2023/01/27 13:16:55;;;;;;;24.00;14.07;;;7.50;54.30;;;;;;5031021;28;20482;-58
2023/01/27 13:19:42;;;;;;;20.60;13.63;;;7.60;54.10;;;;;;5029008;28;20519;-59
2023/01/27 13:22:18;;;;;;;20.80;13.50;;;7.60;53.80;;;;;;5031035;28;20424;-59